createdAt,value
2023-03-11T00:00:39.497Z,3.52
2023-03-11T00:01:39.459Z,3.52
2023-03-11T00:02:39.453Z,3.52
2023-03-11T00:03:39.441Z,3.55
2023-03-11T00:04:39.451Z,3.54
2023-03-11T00:05:39.503Z,3.52
2023-03-11T00:06:39.417Z,3.55
2023-03-11T00:07:39.426Z,3.54
2023-03-11T00:08:39.388Z,3.55
2023-03-11T00:09:39.368Z,3.55
2023-03-11T00:10:39.384Z,3.58
2023-03-11T00:11:39.369Z,3.57
2023-03-11T00:12:39.348Z,3.52
2023-03-11T00:13:39.340Z,3.54
2023-03-11T00:14:39.332Z,3.54
2023-03-11T00:15:40.126Z,3.54
2023-03-11T00:16:39.320Z,3.51
2023-03-11T00:17:39.290Z,3.51
2023-03-11T00:18:39.281Z,3.52
2023-03-11T00:19:39.273Z,3.52
2023-03-11T00:20:39.275Z,3.51
2023-03-11T00:21:39.254Z,3.50
2023-03-11T00:22:39.251Z,3.48
2023-03-11T00:23:39.231Z,3.45
2023-03-11T00:24:39.244Z,3.45
2023-03-11T00:25:39.203Z,3.43
2023-03-11T00:26:39.224Z,3.45
2023-03-11T00:27:39.188Z,3.45
2023-03-11T00:28:39.192Z,3.43
2023-03-11T00:29:39.279Z,3.47
2023-03-11T00:30:39.240Z,3.43
2023-03-11T00:31:39.142Z,3.40
2023-03-11T00:32:39.221Z,3.40
2023-03-11T00:33:39.122Z,3.43
2023-03-11T00:34:39.121Z,3.43
2023-03-11T00:35:39.156Z,3.42
2023-03-11T00:36:39.117Z,3.40
2023-03-11T00:37:39.102Z,3.40
2023-03-11T00:38:39.144Z,3.35
2023-03-11T00:39:39.062Z,3.36
2023-03-11T00:40:39.063Z,3.35
2023-03-11T00:41:39.044Z,3.36
2023-03-11T00:42:39.048Z,3.36
2023-03-11T00:43:39.042Z,3.33
2023-03-11T00:44:39.022Z,3.31
2023-03-11T00:45:39.013Z,3.28
2023-03-11T00:46:39.013Z,3.23
2023-03-11T00:47:38.993Z,3.21
2023-03-11T00:48:39.075Z,3.20
2023-03-11T00:49:39.001Z,3.17
2023-03-11T00:50:38.969Z,3.15
2023-03-11T00:51:38.957Z,3.14
2023-03-11T00:52:38.969Z,3.13
2023-03-11T00:53:39.735Z,3.11
2023-03-11T00:54:38.926Z,3.11
2023-03-11T00:55:38.901Z,3.10
2023-03-11T00:56:38.903Z,3.08
2023-03-11T00:57:38.875Z,3.10
2023-03-11T00:58:39.686Z,3.08
2023-03-11T00:59:38.857Z,3.08
2023-03-11T01:00:38.854Z,3.02
2023-03-11T01:01:38.944Z,3.02
2023-03-11T01:02:38.835Z,3.00
2023-03-11T01:03:38.817Z,3.00
2023-03-11T01:04:38.824Z,2.99
2023-03-11T01:05:38.847Z,3.00
2023-03-11T01:06:45.654Z,3.00
2023-03-11T01:07:39.785Z,2.95
2023-03-11T01:08:38.766Z,2.89
2023-03-11T01:09:38.757Z,2.82
2023-03-11T01:10:38.752Z,2.81
2023-03-11T01:11:38.728Z,2.77
2023-03-11T01:12:38.748Z,2.72
2023-03-11T01:13:38.710Z,2.67
2023-03-11T01:14:38.706Z,2.63
2023-03-11T01:15:38.814Z,2.59
2023-03-11T01:16:38.679Z,2.56
2023-03-11T01:17:38.682Z,2.53
2023-03-11T01:18:38.659Z,2.52
2023-03-11T01:19:38.657Z,2.49
2023-03-11T01:20:38.653Z,2.45
2023-03-11T01:21:38.639Z,2.41
2023-03-11T01:22:38.637Z,2.30
2023-03-11T01:23:38.600Z,2.27
2023-03-11T01:24:38.639Z,2.20
2023-03-11T01:25:38.584Z,2.14
2023-03-11T01:26:38.598Z,2.10
2023-03-11T01:27:38.570Z,2.07
2023-03-11T01:28:38.548Z,2.05
2023-03-11T01:29:38.551Z,1.99
2023-03-11T01:30:38.532Z,1.95
2023-03-11T01:31:38.530Z,1.95
2023-03-11T01:32:38.649Z,1.98
2023-03-11T01:33:38.508Z,1.95
2023-03-11T01:34:38.490Z,1.95
2023-03-11T01:35:38.537Z,1.93
2023-03-11T01:36:38.468Z,1.93
2023-03-11T01:37:38.470Z,1.93
2023-03-11T01:38:38.451Z,1.90
2023-03-11T01:39:38.452Z,1.88
2023-03-11T01:40:38.420Z,1.88
2023-03-11T01:41:38.434Z,1.88
2023-03-11T01:42:38.402Z,1.84
2023-03-11T01:43:38.405Z,1.84
2023-03-11T01:44:38.384Z,1.81
2023-03-11T01:45:38.381Z,1.79
2023-03-11T01:46:38.394Z,1.79
2023-03-11T01:47:38.581Z,1.76
2023-03-11T01:48:38.331Z,1.76
2023-03-11T01:49:38.338Z,1.77
2023-03-11T01:50:38.319Z,1.77
2023-03-11T01:51:38.386Z,1.76
2023-03-11T01:52:38.300Z,1.73
2023-03-11T01:53:38.300Z,1.70
2023-03-11T01:54:38.271Z,1.70
2023-03-11T01:55:38.271Z,1.66
2023-03-11T01:56:38.270Z,1.62
2023-03-11T01:57:38.250Z,1.59
2023-03-11T01:58:38.231Z,1.55
2023-03-11T01:59:38.231Z,1.54
2023-03-11T02:00:38.278Z,1.50
2023-03-11T02:01:38.289Z,1.47
2023-03-11T02:02:38.238Z,1.44
2023-03-11T02:03:38.188Z,1.41
2023-03-11T02:04:38.171Z,1.41
2023-03-11T02:05:38.164Z,1.36
2023-03-11T02:06:38.146Z,1.36
2023-03-11T02:07:38.150Z,1.36
2023-03-11T02:08:38.137Z,1.33
2023-03-11T02:09:38.147Z,1.34
2023-03-11T02:10:38.106Z,1.33
2023-03-11T02:11:38.103Z,1.32
2023-03-11T02:12:38.096Z,1.32
2023-03-11T02:13:38.101Z,1.30
2023-03-11T02:14:38.076Z,1.32
2023-03-11T02:15:39.925Z,1.30
2023-03-11T02:16:38.046Z,1.33
2023-03-11T02:17:38.055Z,1.32
2023-03-11T02:18:38.038Z,1.33
2023-03-11T02:19:38.030Z,1.36
2023-03-11T02:20:38.020Z,1.36
2023-03-11T02:21:38.004Z,1.36
2023-03-11T02:22:37.991Z,1.34
2023-03-11T02:23:37.990Z,1.34
2023-03-11T02:24:37.982Z,1.33
2023-03-11T02:25:37.970Z,1.32
2023-03-11T02:26:37.958Z,1.32
2023-03-11T02:27:37.952Z,1.30
2023-03-11T02:28:37.942Z,1.32
2023-03-11T02:29:38.754Z,1.32
2023-03-11T02:30:37.913Z,1.32
2023-03-11T02:31:38.032Z,1.33
2023-03-11T02:32:38.037Z,1.33
2023-03-11T02:33:37.895Z,1.34
2023-03-11T02:34:37.875Z,1.36
2023-03-11T02:35:37.874Z,1.34
2023-03-11T02:36:37.847Z,1.33
2023-03-11T02:37:38.647Z,1.33
2023-03-11T02:38:37.826Z,1.33
2023-03-11T02:39:37.822Z,1.33
2023-03-11T02:40:37.808Z,1.32
2023-03-11T02:41:37.812Z,1.33
2023-03-11T02:42:37.781Z,1.33
2023-03-11T02:43:37.791Z,1.34
2023-03-11T02:44:37.768Z,1.36
2023-03-11T02:45:37.759Z,1.33
2023-03-11T02:46:37.766Z,1.32
2023-03-11T02:47:37.741Z,1.30
2023-03-11T02:48:37.725Z,1.30
2023-03-11T02:49:37.709Z,1.33
2023-03-11T02:50:37.702Z,1.33
2023-03-11T02:51:37.703Z,1.36
2023-03-11T02:52:37.697Z,1.34
2023-03-11T02:53:37.677Z,1.34
2023-03-11T02:54:37.655Z,1.34
2023-03-11T02:55:37.664Z,1.33
2023-03-11T02:56:37.640Z,1.33
2023-03-11T02:57:37.634Z,1.33
2023-03-11T02:58:37.622Z,1.32
2023-03-11T02:59:37.607Z,1.32
2023-03-11T03:00:38.420Z,1.30
2023-03-11T03:01:37.586Z,1.30
2023-03-11T03:02:37.581Z,1.32
2023-03-11T03:03:37.584Z,1.29
2023-03-11T03:04:37.556Z,1.29
2023-03-11T03:05:37.558Z,1.29
2023-03-11T03:06:37.532Z,1.27
2023-03-11T03:07:37.524Z,1.24
2023-03-11T03:08:37.517Z,1.26
2023-03-11T03:09:37.535Z,1.26
2023-03-11T03:10:37.494Z,1.26
2023-03-11T03:11:37.485Z,1.27
2023-03-11T03:12:37.467Z,1.22
2023-03-11T03:13:37.470Z,1.23
2023-03-11T03:14:37.455Z,1.23
2023-03-11T03:15:37.463Z,1.24
2023-03-11T03:16:37.808Z,1.23
2023-03-11T03:17:37.486Z,1.24
2023-03-11T03:18:37.408Z,1.24
2023-03-11T03:19:37.406Z,1.24
2023-03-11T03:20:37.384Z,1.24
2023-03-11T03:21:37.408Z,1.23
2023-03-11T03:22:37.377Z,1.23
2023-03-11T03:23:37.364Z,1.22
2023-03-11T03:24:37.353Z,1.20
2023-03-11T03:25:37.342Z,1.18
2023-03-11T03:26:37.329Z,1.18
2023-03-11T03:27:37.340Z,1.18
2023-03-11T03:28:37.311Z,1.18
2023-03-11T03:29:37.306Z,1.16
2023-03-11T03:30:37.294Z,1.20
2023-03-11T03:31:37.329Z,1.20
2023-03-11T03:32:37.607Z,1.23
2023-03-11T03:33:37.300Z,1.23
2023-03-11T03:34:37.247Z,1.23
2023-03-11T03:35:37.266Z,1.26
2023-03-11T03:36:37.233Z,1.26
2023-03-11T03:37:37.423Z,1.24
2023-03-11T03:38:37.227Z,1.24
2023-03-11T03:39:37.201Z,1.24
2023-03-11T03:40:37.197Z,1.24
2023-03-11T03:41:37.260Z,1.22
2023-03-11T03:42:37.163Z,1.18
2023-03-11T03:43:37.153Z,1.15
2023-03-11T03:44:37.152Z,1.15
2023-03-11T03:45:37.193Z,1.12
2023-03-11T03:46:37.122Z,1.16
2023-03-11T03:47:37.142Z,1.16
2023-03-11T03:48:37.892Z,1.16
2023-03-11T03:49:37.128Z,1.15
2023-03-11T03:50:37.082Z,1.15
2023-03-11T03:51:37.090Z,1.14
2023-03-11T03:52:37.057Z,1.15
2023-03-11T03:53:37.063Z,1.14
2023-03-11T03:54:37.045Z,1.09
2023-03-11T03:55:37.847Z,1.08
2023-03-11T03:56:37.032Z,1.06
2023-03-11T03:57:37.024Z,1.04
2023-03-11T03:58:37.009Z,1.04
2023-03-11T03:59:37.057Z,1.04
2023-03-11T04:00:36.987Z,1.02
2023-03-11T04:01:36.995Z,1.00
2023-03-11T04:02:37.112Z,1.00
2023-03-11T04:03:36.989Z,1.00
2023-03-11T04:04:37.744Z,1.00
2023-03-11T04:05:36.948Z,1.00
2023-03-11T04:06:36.941Z,0.97
2023-03-11T04:07:36.954Z,0.97
2023-03-11T04:08:36.961Z,0.98
2023-03-11T04:09:36.921Z,0.98
2023-03-11T04:10:36.915Z,0.97
2023-03-11T04:11:36.882Z,0.98
2023-03-11T04:12:36.871Z,0.96
2023-03-11T04:13:37.362Z,0.96
2023-03-11T04:14:36.852Z,0.96
2023-03-11T04:15:36.877Z,0.94
2023-03-11T04:16:36.892Z,0.94
2023-03-11T04:17:37.627Z,0.94
2023-03-11T04:18:36.826Z,0.93
2023-03-11T04:19:36.801Z,0.97
2023-03-11T04:20:36.783Z,0.93
2023-03-11T04:21:37.390Z,0.93
2023-03-11T04:22:36.772Z,0.93
2023-03-11T04:23:36.768Z,0.93
2023-03-11T04:24:36.775Z,0.91
2023-03-11T04:25:36.746Z,0.90
2023-03-11T04:26:36.864Z,0.90
2023-03-11T04:27:36.727Z,0.91
2023-03-11T04:28:36.705Z,0.90
2023-03-11T04:29:36.714Z,0.91
2023-03-11T04:30:36.746Z,0.91
2023-03-11T04:31:36.693Z,0.90
2023-03-11T04:32:36.690Z,0.91
2023-03-11T04:33:36.752Z,0.90
2023-03-11T04:34:36.652Z,0.91
2023-03-11T04:35:36.655Z,0.90
2023-03-11T04:36:36.630Z,0.90
2023-03-11T04:37:36.621Z,0.91
2023-03-11T04:38:36.613Z,0.88
2023-03-11T04:39:36.604Z,0.88
2023-03-11T04:40:36.581Z,0.87
2023-03-11T04:41:36.588Z,0.87
2023-03-11T04:42:36.561Z,0.87
2023-03-11T04:43:36.574Z,0.86
2023-03-11T04:44:36.551Z,0.87
2023-03-11T04:45:36.545Z,0.87
2023-03-11T04:46:36.587Z,0.86
2023-03-11T04:47:36.534Z,0.86
2023-03-11T04:48:36.806Z,0.87
2023-03-11T04:49:36.503Z,0.83
2023-03-11T04:50:36.486Z,0.86
2023-03-11T04:51:36.481Z,0.87
2023-03-11T04:52:36.460Z,0.87
2023-03-11T04:53:36.501Z,0.87
2023-03-11T04:54:36.445Z,0.86
2023-03-11T04:55:36.441Z,0.86
2023-03-11T04:56:36.431Z,0.86
2023-03-11T04:57:36.418Z,0.87
2023-03-11T04:58:36.402Z,0.86
2023-03-11T04:59:36.400Z,0.86
2023-03-11T05:00:36.384Z,0.86
2023-03-11T05:01:36.412Z,0.87
2023-03-11T05:02:36.383Z,0.84
2023-03-11T05:03:36.352Z,0.86
2023-03-11T05:04:36.433Z,0.86
2023-03-11T05:05:36.347Z,0.84
2023-03-11T05:06:36.323Z,0.86
2023-03-11T05:07:36.325Z,0.84
2023-03-11T05:08:36.304Z,0.83
2023-03-11T05:09:36.294Z,0.83
2023-03-11T05:10:36.282Z,0.83
2023-03-11T05:11:36.285Z,0.83
2023-03-11T05:12:36.259Z,0.84
2023-03-11T05:13:36.272Z,0.83
2023-03-11T05:14:36.242Z,0.84
2023-03-11T05:15:36.239Z,0.84
2023-03-11T05:16:36.225Z,0.84
2023-03-11T05:17:36.226Z,0.84
2023-03-11T05:18:36.207Z,0.83
2023-03-11T05:19:36.217Z,0.84
2023-03-11T05:20:36.176Z,0.83
2023-03-11T05:21:36.207Z,0.80
2023-03-11T05:22:36.162Z,0.80
2023-03-11T05:23:36.163Z,0.83
2023-03-11T05:24:36.137Z,0.84
2023-03-11T05:25:36.147Z,0.80
2023-03-11T05:26:36.118Z,0.84
2023-03-11T05:27:36.121Z,0.83
2023-03-11T05:28:36.098Z,0.84
2023-03-11T05:29:36.099Z,0.84
2023-03-11T05:30:36.076Z,0.83
2023-03-11T05:31:36.148Z,0.83
2023-03-11T05:32:36.128Z,0.83
2023-03-11T05:33:36.074Z,0.83
2023-03-11T05:34:36.055Z,0.86
2023-03-11T05:35:36.095Z,0.84
2023-03-11T05:36:36.206Z,0.84
2023-03-11T05:37:36.022Z,0.83
2023-03-11T05:38:36.008Z,0.80
2023-03-11T05:39:36.169Z,0.84
2023-03-11T05:40:35.983Z,0.80
2023-03-11T05:41:35.989Z,0.80
2023-03-11T05:42:35.997Z,0.80
2023-03-11T05:43:36.178Z,0.83
2023-03-11T05:44:35.959Z,0.83
2023-03-11T05:45:35.936Z,0.80
2023-03-11T05:46:35.967Z,0.80
2023-03-11T05:47:36.743Z,0.80
2023-03-11T05:48:35.924Z,0.83
2023-03-11T05:49:35.909Z,0.84
2023-03-11T05:50:35.897Z,0.83
2023-03-11T05:51:35.896Z,0.87
2023-03-11T05:52:35.879Z,0.87
2023-03-11T05:53:35.860Z,0.87
2023-03-11T05:54:35.856Z,0.87
2023-03-11T05:55:35.847Z,0.87
2023-03-11T05:56:35.837Z,0.87
2023-03-11T05:57:35.823Z,0.90
2023-03-11T05:58:35.816Z,0.88
2023-03-11T05:59:35.795Z,0.88
2023-03-11T06:00:35.786Z,0.88
2023-03-11T06:01:35.779Z,0.90
2023-03-11T06:02:35.779Z,0.87
2023-03-11T06:03:35.793Z,0.87
2023-03-11T06:04:35.907Z,0.87
2023-03-11T06:05:35.730Z,0.88
2023-03-11T06:06:35.736Z,0.87
2023-03-11T06:07:35.714Z,0.87
2023-03-11T06:08:35.715Z,0.88
2023-03-11T06:09:35.702Z,0.88
2023-03-11T06:10:35.689Z,0.88
2023-03-11T06:11:35.947Z,0.88
2023-03-11T06:12:35.679Z,0.88
2023-03-11T06:13:35.647Z,0.90
2023-03-11T06:14:35.667Z,0.91
2023-03-11T06:15:36.416Z,0.90
2023-03-11T06:16:35.691Z,0.93
2023-03-11T06:17:35.606Z,0.96
2023-03-11T06:18:35.611Z,0.96
2023-03-11T06:19:35.595Z,0.97
2023-03-11T06:20:35.587Z,0.96
2023-03-11T06:21:35.582Z,0.97
2023-03-11T06:22:35.577Z,0.98
2023-03-11T06:23:35.584Z,0.98
2023-03-11T06:24:35.546Z,0.98
2023-03-11T06:25:35.596Z,1.00
2023-03-11T06:26:35.528Z,1.00
2023-03-11T06:27:35.508Z,1.02
2023-03-11T06:28:35.549Z,1.00
2023-03-11T06:29:35.503Z,0.94
2023-03-11T06:30:35.489Z,0.94
2023-03-11T06:31:35.492Z,0.93
2023-03-11T06:32:35.561Z,0.91
2023-03-11T06:33:35.470Z,0.91
2023-03-11T06:34:35.451Z,0.93
2023-03-11T06:35:35.489Z,0.96
2023-03-11T06:36:35.433Z,0.96
2023-03-11T06:37:35.410Z,1.00
2023-03-11T06:38:37.384Z,1.00
2023-03-11T06:39:35.389Z,1.00
2023-03-11T06:40:35.390Z,1.05
2023-03-11T06:41:35.482Z,1.05
2023-03-11T06:42:35.379Z,1.05
2023-03-11T06:43:35.340Z,1.06
2023-03-11T06:44:35.353Z,1.09
2023-03-11T06:45:35.392Z,1.09
2023-03-11T06:46:35.320Z,1.11
2023-03-11T06:47:35.335Z,1.12
2023-03-11T06:48:35.332Z,1.14
2023-03-11T06:49:35.302Z,1.14
2023-03-11T06:50:35.315Z,1.15
2023-03-11T06:51:35.280Z,1.18
2023-03-11T06:52:35.271Z,1.22
2023-03-11T06:53:35.268Z,1.20
2023-03-11T06:54:35.252Z,1.20
2023-03-11T06:55:35.222Z,1.16
2023-03-11T06:56:35.223Z,1.15
2023-03-11T06:57:35.214Z,1.18
2023-03-11T06:58:35.232Z,1.20
2023-03-11T06:59:35.202Z,1.20
2023-03-11T07:00:35.185Z,1.20
2023-03-11T07:01:35.276Z,1.22
2023-03-11T07:02:35.165Z,1.23
2023-03-11T07:03:35.173Z,1.26
2023-03-11T07:04:35.166Z,1.22
2023-03-11T07:05:35.133Z,1.20
2023-03-11T07:06:35.131Z,1.18
2023-03-11T07:07:35.105Z,1.18
2023-03-11T07:08:35.114Z,1.20
2023-03-11T07:09:35.113Z,1.20
2023-03-11T07:10:35.087Z,1.23
2023-03-11T07:11:35.067Z,1.24
2023-03-11T07:12:35.069Z,1.23
2023-03-11T07:13:35.094Z,1.24
2023-03-11T07:14:35.878Z,1.29
2023-03-11T07:15:35.036Z,1.32
2023-03-11T07:16:35.060Z,1.36
2023-03-11T07:17:35.025Z,1.34
2023-03-11T07:18:35.008Z,1.34
2023-03-11T07:19:35.014Z,1.36
2023-03-11T07:20:34.989Z,1.34
2023-03-11T07:21:34.974Z,1.34
2023-03-11T07:22:34.980Z,1.37
2023-03-11T07:23:35.131Z,1.37
2023-03-11T07:24:34.948Z,1.40
2023-03-11T07:25:34.931Z,1.36
2023-03-11T07:26:34.929Z,1.33
2023-03-11T07:27:35.160Z,1.36
2023-03-11T07:28:35.729Z,1.34
2023-03-11T07:29:34.888Z,1.37
2023-03-11T07:30:34.883Z,1.42
2023-03-11T07:31:34.888Z,1.44
2023-03-11T07:32:34.932Z,1.44
2023-03-11T07:33:34.862Z,1.48
2023-03-11T07:34:34.841Z,1.51
2023-03-11T07:35:35.010Z,1.50
2023-03-11T07:36:34.846Z,1.51
2023-03-11T07:37:34.806Z,1.51
2023-03-11T07:38:34.804Z,1.52
2023-03-11T07:39:34.781Z,1.58
2023-03-11T07:40:34.781Z,1.59
2023-03-11T07:41:34.999Z,1.60
2023-03-11T07:42:34.941Z,1.60
2023-03-11T07:43:34.741Z,1.63
2023-03-11T07:44:34.743Z,1.59
2023-03-11T07:45:34.732Z,1.60
2023-03-11T07:46:34.736Z,1.65
2023-03-11T07:47:35.176Z,1.66
2023-03-11T07:48:34.749Z,1.66
2023-03-11T07:49:34.829Z,1.69
2023-03-11T07:50:35.151Z,1.77
2023-03-11T07:51:34.709Z,1.80
2023-03-11T07:52:34.678Z,1.84
2023-03-11T07:53:34.644Z,1.84
2023-03-11T07:54:34.645Z,1.86
2023-03-11T07:55:34.705Z,1.87
2023-03-11T07:56:34.619Z,1.91
2023-03-11T07:57:34.596Z,1.95
2023-03-11T07:58:34.596Z,1.98
2023-03-11T07:59:35.404Z,1.99
2023-03-11T08:00:36.026Z,1.99
2023-03-11T08:01:34.569Z,1.98
2023-03-11T08:02:34.723Z,2.02
2023-03-11T08:03:34.592Z,2.07
2023-03-11T08:04:35.345Z,2.12
2023-03-11T08:05:34.844Z,2.14
2023-03-11T08:06:34.516Z,2.06
2023-03-11T08:07:34.496Z,1.99
2023-03-11T08:08:34.512Z,1.93
2023-03-11T08:09:34.476Z,1.95
2023-03-11T08:10:34.504Z,1.95
2023-03-11T08:11:34.458Z,1.99
2023-03-11T08:12:34.453Z,1.99
2023-03-11T08:13:34.441Z,1.95
2023-03-11T08:14:34.432Z,1.90
2023-03-11T08:15:34.450Z,1.90
2023-03-11T08:16:34.426Z,1.87
2023-03-11T08:17:34.389Z,1.84
2023-03-11T08:18:34.387Z,1.86
2023-03-11T08:19:34.558Z,1.84
2023-03-11T08:20:34.408Z,1.83
2023-03-11T08:21:34.367Z,1.79
2023-03-11T08:22:34.368Z,1.83
2023-03-11T08:23:34.342Z,1.86
2023-03-11T08:24:34.343Z,1.84
2023-03-11T08:25:34.316Z,1.83
2023-03-11T08:26:34.321Z,1.83
2023-03-11T08:27:34.311Z,1.87
2023-03-11T08:28:35.089Z,1.91
2023-03-11T08:29:34.268Z,1.86
2023-03-11T08:30:34.274Z,1.83
2023-03-11T08:31:34.289Z,1.84
2023-03-11T08:32:34.286Z,1.81
2023-03-11T08:33:34.232Z,1.79
2023-03-11T08:34:34.241Z,1.76
2023-03-11T08:35:35.181Z,1.73
2023-03-11T08:36:34.302Z,1.76
2023-03-11T08:37:34.196Z,1.80
2023-03-11T08:38:34.198Z,1.87
2023-03-11T08:39:34.176Z,1.87
2023-03-11T08:40:34.166Z,1.91
2023-03-11T08:41:34.284Z,1.91
2023-03-11T08:42:36.207Z,1.95
2023-03-11T08:43:34.120Z,1.95
2023-03-11T08:44:34.123Z,1.95
2023-03-11T08:45:34.116Z,1.88
2023-03-11T08:46:34.243Z,1.86
2023-03-11T08:47:34.081Z,1.88
2023-03-11T08:48:34.074Z,1.98
2023-03-11T08:49:34.071Z,2.02
2023-03-11T08:50:44.210Z,2.07
2023-03-11T08:51:35.258Z,2.03
2023-03-11T08:52:34.034Z,2.05
2023-03-11T08:53:34.017Z,2.07
2023-03-11T08:54:34.004Z,2.07
2023-03-11T08:55:34.001Z,2.07
2023-03-11T08:56:34.793Z,2.07
2023-03-11T08:57:34.273Z,2.05
2023-03-11T08:58:33.988Z,2.05
2023-03-11T08:59:33.986Z,2.06
2023-03-11T09:00:34.239Z,2.09
2023-03-11T09:01:33.926Z,2.14
2023-03-11T09:02:33.955Z,2.17
2023-03-11T09:03:33.925Z,2.18
2023-03-11T09:04:33.920Z,2.14
2023-03-11T09:05:33.951Z,2.03
2023-03-11T09:06:33.895Z,2.03
2023-03-11T09:07:33.865Z,2.06
2023-03-11T09:08:33.865Z,2.09
2023-03-11T09:09:33.846Z,2.09
2023-03-11T09:10:33.876Z,2.17
2023-03-11T09:11:33.823Z,2.23
2023-03-11T09:12:33.816Z,2.28
2023-03-11T09:13:33.809Z,2.35
2023-03-11T09:14:33.808Z,2.42
2023-03-11T09:15:33.782Z,2.36
2023-03-11T09:16:33.843Z,2.34
2023-03-11T09:17:33.756Z,2.42
2023-03-11T09:18:33.748Z,2.48
2023-03-11T09:19:33.738Z,2.61
2023-03-11T09:20:33.737Z,2.75
2023-03-11T09:21:33.725Z,2.87
2023-03-11T09:22:33.718Z,2.95
2023-03-11T09:23:33.706Z,3.03
2023-03-11T09:24:33.697Z,2.96
2023-03-11T09:25:33.681Z,2.90
2023-03-11T09:26:33.683Z,2.95
2023-03-11T09:27:33.654Z,3.02
2023-03-11T09:28:34.438Z,3.13
2023-03-11T09:29:33.631Z,3.11
2023-03-11T09:30:33.644Z,3.05
2023-03-11T09:31:33.720Z,2.95
2023-03-11T09:32:33.731Z,2.89
2023-03-11T09:33:33.617Z,2.85
2023-03-11T09:34:33.593Z,2.87
2023-03-11T09:35:33.612Z,2.93
2023-03-11T09:36:33.582Z,2.99
2023-03-11T09:37:33.561Z,3.03
2023-03-11T09:38:33.547Z,2.97
2023-03-11T09:39:33.565Z,2.90
2023-03-11T09:40:33.525Z,2.84
2023-03-11T09:41:33.913Z,2.89
2023-03-11T09:42:34.306Z,2.95
2023-03-11T09:43:33.494Z,2.99
2023-03-11T09:44:33.489Z,3.02
2023-03-11T09:45:33.484Z,3.03
2023-03-11T09:46:33.526Z,3.00
2023-03-11T09:47:33.444Z,3.02
2023-03-11T09:48:33.435Z,3.10
2023-03-11T09:49:33.423Z,3.17
2023-03-11T09:50:33.419Z,3.17
2023-03-11T09:51:33.413Z,3.20
2023-03-11T09:52:33.397Z,3.24
2023-03-11T09:53:33.382Z,3.28
2023-03-11T09:54:33.401Z,3.31
2023-03-11T09:55:33.379Z,3.33
2023-03-11T09:56:33.362Z,3.24
2023-03-11T09:57:33.369Z,3.20
2023-03-11T09:58:33.363Z,3.21
2023-03-11T09:59:33.345Z,3.14
2023-03-11T10:00:33.327Z,3.23
2023-03-11T10:01:33.308Z,3.31
2023-03-11T10:02:33.362Z,3.40
2023-03-11T10:03:33.296Z,3.48
2023-03-11T10:04:33.274Z,3.50
2023-03-11T10:05:33.282Z,3.45
2023-03-11T10:06:33.269Z,3.43
2023-03-11T10:07:33.237Z,3.48
2023-03-11T10:08:33.233Z,3.55
2023-03-11T10:09:33.228Z,3.70
2023-03-11T10:10:33.220Z,3.87
2023-03-11T10:11:33.213Z,3.97
2023-03-11T10:12:33.194Z,3.98
2023-03-11T10:13:33.179Z,3.93
2023-03-11T10:14:33.165Z,3.84
2023-03-11T10:15:33.157Z,3.90
2023-03-11T10:16:33.197Z,3.93
2023-03-11T10:17:33.157Z,4.00
2023-03-11T10:18:33.129Z,4.11
2023-03-11T10:19:33.120Z,4.12
2023-03-11T10:20:33.100Z,4.20
2023-03-11T10:21:33.107Z,4.16
2023-03-11T10:22:33.092Z,4.27
2023-03-11T10:23:33.091Z,4.30
2023-03-11T10:24:33.059Z,4.37
2023-03-11T10:25:33.059Z,4.29
2023-03-11T10:26:33.046Z,4.40
2023-03-11T10:27:33.067Z,4.45
2023-03-11T10:28:33.105Z,4.66
2023-03-11T10:29:33.021Z,4.89
2023-03-11T10:30:33.004Z,5.03
2023-03-11T10:31:33.048Z,5.03
2023-03-11T10:32:33.002Z,4.97
2023-03-11T10:33:32.983Z,4.91
2023-03-11T10:34:32.971Z,4.91
2023-03-11T10:35:33.174Z,4.92
2023-03-11T10:36:33.756Z,4.86
2023-03-11T10:37:47.936Z,4.84
2023-03-11T10:38:33.931Z,4.86
2023-03-11T10:39:32.918Z,4.92
2023-03-11T10:40:32.910Z,4.84
2023-03-11T10:41:32.915Z,4.86
2023-03-11T10:42:32.872Z,4.94
2023-03-11T10:43:32.882Z,4.84
2023-03-11T10:44:32.862Z,4.85
2023-03-11T10:45:32.906Z,4.88
2023-03-11T10:46:32.838Z,4.86
2023-03-11T10:47:32.846Z,4.75
2023-03-11T10:48:32.821Z,4.77
2023-03-11T10:49:32.811Z,4.62
2023-03-11T10:50:36.033Z,4.65
2023-03-11T10:51:32.788Z,4.73
2023-03-11T10:52:32.767Z,4.82
2023-03-11T10:53:32.778Z,4.94
2023-03-11T10:54:32.762Z,5.02
2023-03-11T10:55:33.117Z,5.10
2023-03-11T10:56:32.743Z,5.10
2023-03-11T10:57:32.744Z,4.99
2023-03-11T10:58:32.728Z,4.97
2023-03-11T10:59:33.513Z,4.97
2023-03-11T11:00:32.692Z,4.99
2023-03-11T11:01:32.763Z,5.06
2023-03-11T11:02:32.737Z,4.92
2023-03-11T11:03:32.681Z,4.86
2023-03-11T11:04:33.127Z,4.70
2023-03-11T11:05:32.652Z,4.80
2023-03-11T11:06:32.679Z,4.92
2023-03-11T11:07:32.632Z,4.78
2023-03-11T11:08:32.848Z,4.85
2023-03-11T11:09:32.604Z,4.75
2023-03-11T11:10:32.615Z,4.77
2023-03-11T11:11:32.585Z,4.91
2023-03-11T11:12:32.805Z,5.00
2023-03-11T11:13:33.387Z,5.10
2023-03-11T11:14:32.557Z,5.12
2023-03-11T11:15:32.568Z,5.06
2023-03-11T11:16:32.567Z,5.09
2023-03-11T11:17:32.529Z,5.17
2023-03-11T11:18:32.527Z,5.25
2023-03-11T11:19:32.499Z,5.38
2023-03-11T11:20:32.501Z,5.35
2023-03-11T11:21:32.592Z,5.36
2023-03-11T11:22:32.459Z,5.42
2023-03-11T11:23:32.465Z,5.45
2023-03-11T11:24:32.450Z,5.24
2023-03-11T11:25:32.546Z,5.17
2023-03-11T11:26:32.431Z,5.17
2023-03-11T11:27:32.420Z,5.27
2023-03-11T11:28:32.411Z,5.36
2023-03-11T11:29:32.421Z,5.39
2023-03-11T11:30:32.456Z,5.45
2023-03-11T11:31:32.414Z,5.46
2023-03-11T11:32:32.414Z,5.49
2023-03-11T11:33:32.366Z,5.35
2023-03-11T11:34:32.377Z,5.25
2023-03-11T11:35:32.374Z,5.31
2023-03-11T11:36:32.701Z,5.36
2023-03-11T11:37:32.330Z,5.25
2023-03-11T11:38:32.296Z,5.30
2023-03-11T11:39:32.595Z,5.21
2023-03-11T11:40:32.291Z,5.25
2023-03-11T11:41:32.281Z,5.43
2023-03-11T11:42:32.252Z,5.60
2023-03-11T11:43:32.252Z,5.67
2023-03-11T11:44:32.253Z,5.63
2023-03-11T11:45:32.243Z,5.57
2023-03-11T11:46:32.343Z,5.56
2023-03-11T11:47:32.212Z,5.56
2023-03-11T11:48:32.181Z,5.60
2023-03-11T11:49:32.182Z,5.65
2023-03-11T11:50:32.182Z,5.68
2023-03-11T11:51:32.164Z,5.74
2023-03-11T11:52:32.144Z,5.81
2023-03-11T11:53:32.143Z,5.83
2023-03-11T11:54:32.132Z,5.89
2023-03-11T11:55:32.116Z,5.93
2023-03-11T11:56:32.105Z,5.94
2023-03-11T11:57:32.093Z,5.71
2023-03-11T11:58:32.095Z,5.45
2023-03-11T11:59:32.089Z,5.46
2023-03-11T12:00:32.054Z,5.40
2023-03-11T12:01:32.063Z,5.35
2023-03-11T12:02:32.050Z,5.39
2023-03-11T12:03:32.063Z,5.24
2023-03-11T12:04:32.013Z,5.21
2023-03-11T12:05:32.025Z,5.21
2023-03-11T12:06:32.006Z,5.25
2023-03-11T12:07:32.803Z,5.27
2023-03-11T12:08:31.978Z,5.35
2023-03-11T12:09:31.975Z,5.39
2023-03-11T12:10:31.954Z,5.39
2023-03-11T12:11:31.966Z,5.39
2023-03-11T12:12:31.927Z,5.38
2023-03-11T12:13:31.939Z,5.45
2023-03-11T12:14:32.876Z,5.49
2023-03-11T12:15:31.932Z,5.27
2023-03-11T12:16:31.896Z,5.31
2023-03-11T12:17:31.887Z,5.35
2023-03-11T12:18:31.867Z,4.97
2023-03-11T12:19:31.866Z,4.63
2023-03-11T12:20:31.847Z,4.27
2023-03-11T12:21:32.228Z,4.08
2023-03-11T12:22:31.830Z,4.00
2023-03-11T12:23:31.845Z,4.24
2023-03-11T12:24:32.060Z,4.52
2023-03-11T12:25:31.811Z,4.66
2023-03-11T12:26:31.783Z,4.51
2023-03-11T12:27:31.790Z,4.45
2023-03-11T12:28:32.011Z,4.65
2023-03-11T12:29:31.777Z,4.66
2023-03-11T12:30:31.760Z,4.69
2023-03-11T12:31:31.833Z,4.80
2023-03-11T12:32:31.768Z,5.06
2023-03-11T12:33:31.725Z,5.21
2023-03-11T12:34:31.708Z,5.04
2023-03-11T12:35:31.771Z,4.72
2023-03-11T12:36:31.692Z,4.51
2023-03-11T12:37:31.691Z,4.51
2023-03-11T12:38:31.685Z,4.67
2023-03-11T12:39:31.774Z,4.67
2023-03-11T12:40:31.638Z,4.72
2023-03-11T12:41:31.648Z,4.72
2023-03-11T12:42:31.614Z,4.70
2023-03-11T12:43:31.615Z,4.80
2023-03-11T12:44:31.625Z,4.85
2023-03-11T12:45:31.596Z,4.92
2023-03-11T12:46:31.638Z,5.06
2023-03-11T12:47:33.351Z,5.09
2023-03-11T12:48:31.565Z,4.97
2023-03-11T12:49:31.599Z,4.77
2023-03-11T12:50:31.546Z,4.73
2023-03-11T12:51:31.535Z,4.82
2023-03-11T12:52:31.538Z,4.51
2023-03-11T12:53:31.598Z,4.42
2023-03-11T12:54:31.487Z,4.40
2023-03-11T12:55:31.487Z,4.40
2023-03-11T12:56:31.476Z,4.40
2023-03-11T12:57:31.475Z,4.26
2023-03-11T12:58:31.451Z,4.24
2023-03-11T12:59:31.474Z,4.24
2023-03-11T13:00:31.440Z,4.36
2023-03-11T13:01:31.451Z,4.33
2023-03-11T13:02:31.540Z,4.22
2023-03-11T13:03:31.401Z,4.23
2023-03-11T13:04:31.392Z,4.45
2023-03-11T13:05:31.383Z,4.70
2023-03-11T13:06:31.365Z,5.00
2023-03-11T13:07:31.367Z,5.22
2023-03-11T13:08:31.353Z,5.43
2023-03-11T13:09:31.706Z,5.36
2023-03-11T13:10:31.340Z,5.48
2023-03-11T13:11:31.330Z,5.40
2023-03-11T13:12:31.307Z,5.28
2023-03-11T13:13:31.311Z,5.04
2023-03-11T13:14:31.294Z,4.91
2023-03-11T13:15:31.293Z,4.75
2023-03-11T13:16:31.375Z,4.73
2023-03-11T13:17:31.279Z,4.85
2023-03-11T13:18:31.239Z,4.89